createdAt,value
2022-11-26T00:04:37.002Z,11.20
2022-11-26T00:09:40.087Z,10.88
2022-11-26T00:14:42.703Z,11.35
2022-11-26T00:19:45.599Z,10.82
2022-11-26T00:24:49.056Z,12.20
2022-11-26T00:29:51.810Z,12.55
2022-11-26T00:34:54.634Z,13.65
2022-11-26T00:39:57.490Z,14.30
2022-11-26T00:44:59.947Z,14.07
2022-11-26T00:50:02.425Z,15.07
2022-11-26T00:55:09.235Z,15.52
2022-11-26T01:00:19.192Z,15.98
2022-11-26T01:05:22.539Z,15.73
2022-11-26T01:10:26.267Z,15.27
2022-11-26T01:15:29.110Z,14.85
2022-11-26T01:20:31.646Z,14.55
2022-11-26T01:25:34.152Z,14.55
2022-11-26T01:30:36.695Z,14.70
2022-11-26T01:35:39.314Z,15.35
2022-11-26T01:40:53.376Z,15.52
2022-11-26T01:45:57.072Z,15.25
2022-11-26T01:51:02.527Z,16.00
2022-11-26T01:56:12.091Z,16.20
2022-11-26T02:01:14.757Z,16.00
2022-11-26T02:06:19.250Z,15.80
2022-11-26T02:11:23.622Z,15.43
2022-11-26T02:16:26.251Z,15.80
2022-11-26T02:21:29.466Z,16.25
2022-11-26T02:26:35.674Z,15.90
2022-11-26T02:31:57.916Z,16.50
2022-11-26T02:37:02.218Z,16.97
2022-11-26T02:42:22.416Z,16.38
2022-11-26T02:47:26.754Z,16.23
2022-11-26T02:52:30.047Z,17.45
2022-11-26T02:57:34.247Z,16.83
2022-11-26T03:03:00.280Z,17.13
2022-11-26T03:08:03.813Z,16.35
2022-11-26T03:13:06.327Z,16.33
2022-11-26T03:18:08.809Z,15.43
2022-11-26T03:23:11.361Z,15.98
2022-11-26T03:28:13.943Z,16.60
2022-11-26T03:33:16.500Z,16.67
2022-11-26T03:38:19.053Z,15.77
2022-11-26T03:43:21.561Z,17.10
2022-11-26T03:48:24.001Z,17.40
2022-11-26T03:53:26.555Z,17.67
2022-11-26T03:58:29.058Z,16.30
2022-11-26T04:03:34.643Z,17.13
2022-11-26T04:08:37.253Z,16.88
2022-11-26T04:13:39.773Z,17.02
2022-11-26T04:18:42.507Z,17.85
2022-11-26T04:23:45.131Z,17.95
2022-11-26T04:28:47.867Z,18.70
2022-11-26T04:33:50.411Z,20.58
2022-11-26T04:38:53.215Z,21.23
2022-11-26T04:43:55.728Z,21.67
2022-11-26T04:48:58.270Z,21.33
2022-11-26T04:54:03.162Z,22.50
2022-11-26T04:59:06.807Z,22.85
2022-11-26T05:04:09.324Z,22.67
2022-11-26T05:09:11.896Z,23.08
2022-11-26T05:14:14.453Z,23.75
2022-11-26T05:19:17.045Z,22.05
2022-11-26T05:24:19.578Z,26.48
2022-11-26T05:29:22.277Z,31.85
2022-11-26T05:34:24.877Z,23.58
2022-11-26T05:39:27.599Z,22.02
2022-11-26T05:44:30.456Z,19.85
2022-11-26T05:49:33.004Z,21.48
2022-11-26T05:54:35.753Z,20.50
2022-11-26T05:59:38.565Z,22.33
2022-11-26T06:04:41.543Z,23.60
2022-11-26T06:09:44.394Z,23.58
2022-11-26T06:14:47.173Z,24.40
2022-11-26T06:19:49.839Z,22.20
2022-11-26T06:24:52.488Z,22.25
2022-11-26T06:29:54.997Z,19.65
2022-11-26T06:34:57.995Z,22.90
2022-11-26T06:40:00.654Z,19.77
2022-11-26T06:45:03.230Z,19.65
2022-11-26T06:50:10.856Z,19.83
2022-11-26T06:55:13.678Z,19.77
2022-11-26T07:00:16.939Z,19.38
2022-11-26T07:05:19.907Z,17.88
2022-11-26T07:10:22.554Z,18.33
2022-11-26T07:15:25.341Z,18.42
2022-11-26T07:20:28.139Z,18.52
2022-11-26T07:25:31.636Z,17.55
2022-11-26T07:30:40.494Z,17.38
2022-11-26T07:35:43.208Z,16.90
2022-11-26T07:40:46.411Z,17.77
2022-11-26T07:45:53.122Z,17.10
2022-11-26T07:50:58.483Z,16.40
2022-11-26T07:56:06.925Z,15.38
2022-11-26T08:01:10.742Z,16.48
2022-11-26T08:06:15.415Z,15.48
2022-11-26T08:11:19.096Z,14.75
2022-11-26T08:16:22.043Z,15.15
2022-11-26T08:21:25.611Z,15.27
2022-11-26T08:26:35.063Z,15.20
2022-11-26T08:31:45.539Z,22.27
2022-11-26T08:36:49.084Z,16.92
2022-11-26T08:41:52.921Z,13.75
2022-11-26T08:46:58.783Z,12.98
2022-11-26T08:52:01.743Z,11.10
2022-11-26T08:57:05.895Z,11.63
2022-11-26T09:02:10.114Z,11.02
2022-11-26T09:07:13.507Z,10.82
2022-11-26T09:12:16.344Z,10.25
2022-11-26T09:17:19.043Z,10.80
2022-11-26T09:22:21.570Z,9.45
2022-11-26T09:27:24.358Z,9.80
2022-11-26T09:32:33.679Z,9.40
2022-11-26T09:37:36.734Z,9.10
2022-11-26T09:43:03.328Z,8.25
2022-11-26T09:48:16.738Z,8.52
2022-11-26T09:53:25.737Z,9.48
2022-11-26T09:58:39.238Z,8.30
2022-11-26T10:03:42.662Z,8.25
2022-11-26T10:09:03.702Z,8.60
2022-11-26T10:14:12.794Z,8.02
2022-11-26T10:19:37.159Z,7.67
2022-11-26T10:24:42.424Z,6.93
2022-11-26T10:29:50.080Z,6.43
2022-11-26T10:34:56.851Z,6.07
2022-11-26T10:40:18.520Z,5.75
2022-11-26T10:45:23.183Z,6.28
2022-11-26T10:50:47.183Z,6.22
2022-11-26T11:00:51.346Z,6.13
2022-11-26T11:06:10.399Z,6.00
2022-11-26T11:11:33.368Z,6.82
2022-11-26T11:16:41.432Z,8.00
2022-11-26T11:21:48.146Z,8.00
2022-11-26T11:26:54.776Z,7.80
2022-11-26T11:31:57.981Z,7.50
2022-11-26T11:37:05.285Z,7.32
2022-11-26T11:42:14.631Z,8.13
2022-11-26T11:47:35.812Z,5.72
2022-11-26T11:52:38.540Z,5.25
2022-11-26T11:57:49.432Z,4.97
2022-11-26T12:02:55.152Z,5.43
2022-11-26T12:08:05.078Z,5.25
2022-11-26T12:13:10.073Z,5.60
2022-11-26T12:18:18.878Z,5.15
2022-11-26T12:23:34.118Z,5.03
2022-11-26T12:28:55.153Z,4.60
2022-11-26T12:34:08.213Z,5.05
2022-11-26T12:39:19.358Z,4.97
2022-11-26T12:44:33.025Z,4.47
2022-11-26T12:49:43.306Z,4.20
2022-11-26T12:55:04.305Z,4.30
2022-11-26T13:00:13.138Z,4.35
2022-11-26T13:05:18.606Z,5.15
2022-11-26T13:10:21.599Z,5.07
2022-11-26T13:15:28.308Z,5.18
2022-11-26T13:20:40.317Z,6.13
2022-11-26T13:25:45.985Z,5.30
2022-11-26T13:30:51.427Z,5.75
2022-11-26T13:36:12.596Z,6.00
2022-11-26T13:41:44.682Z,5.93
2022-11-26T13:46:51.321Z,5.63
2022-11-26T13:51:56.141Z,17.05
2022-11-26T13:57:01.232Z,6.95
2022-11-26T14:02:25.129Z,7.10
2022-11-26T14:07:28.066Z,7.63
2022-11-26T14:12:49.613Z,7.40
2022-11-26T14:17:56.363Z,7.38
2022-11-26T14:23:19.004Z,7.03
2022-11-26T14:28:22.545Z,7.32
2022-11-26T14:33:27.426Z,7.95
2022-11-26T14:38:31.828Z,7.97
2022-11-26T14:43:34.487Z,9.07
2022-11-26T14:48:41.628Z,7.53
2022-11-26T14:53:47.177Z,7.43
2022-11-26T14:58:52.249Z,8.70
2022-11-26T15:03:54.904Z,8.48
2022-11-26T15:09:06.753Z,8.93
2022-11-26T15:14:38.625Z,8.23
2022-11-26T15:19:42.255Z,8.52
2022-11-26T15:24:48.297Z,8.68
2022-11-26T15:29:51.085Z,8.10
2022-11-26T15:34:54.091Z,8.93
2022-11-26T15:40:11.507Z,8.38
2022-11-26T15:45:15.357Z,8.07
2022-11-26T15:50:37.961Z,8.50
2022-11-26T15:55:41.117Z,11.85
2022-11-26T16:00:49.035Z,9.55
2022-11-26T16:05:56.186Z,9.85
2022-11-26T16:11:05.131Z,10.02
2022-11-26T16:16:10.445Z,9.85
2022-11-26T16:21:24.612Z,11.10
2022-11-26T16:26:27.624Z,10.63
2022-11-26T16:31:31.047Z,10.52
2022-11-26T16:36:34.213Z,11.02
2022-11-26T16:41:36.848Z,12.57
2022-11-26T16:46:41.317Z,10.60
2022-11-26T16:51:44.066Z,12.52
2022-11-26T16:56:48.553Z,11.93
2022-11-26T17:01:54.774Z,12.13
2022-11-26T17:06:57.416Z,11.70
2022-11-26T17:11:59.997Z,12.57
2022-11-26T17:17:02.838Z,12.18
2022-11-26T17:22:05.499Z,13.43
2022-11-26T17:27:15.210Z,12.48
2022-11-26T17:32:19.184Z,12.90
2022-11-26T17:37:26.095Z,12.68
2022-11-26T17:42:32.299Z,12.95
2022-11-26T17:47:39.141Z,11.88
2022-11-26T17:52:41.949Z,10.60
2022-11-26T17:57:44.902Z,9.98
2022-11-26T18:02:47.892Z,10.52
2022-11-26T18:07:51.263Z,14.85
2022-11-26T18:12:54.874Z,11.80
2022-11-26T18:17:58.145Z,10.10
2022-11-26T18:23:01.136Z,10.07
2022-11-26T18:28:04.212Z,11.55
2022-11-26T18:33:07.249Z,9.63
2022-11-26T18:38:11.607Z,10.02
2022-11-26T18:43:14.456Z,11.23
2022-11-26T18:48:17.408Z,10.52
2022-11-26T18:53:20.024Z,10.30
2022-11-26T18:58:23.470Z,10.68
2022-11-26T19:03:27.682Z,9.70
2022-11-26T19:08:32.340Z,11.15
2022-11-26T19:13:35.351Z,10.88
2022-11-26T19:18:37.914Z,13.63
2022-11-26T19:23:40.571Z,11.90
2022-11-26T19:28:43.694Z,33.10
2022-11-26T19:33:47.634Z,12.75
2022-11-26T19:38:54.353Z,12.57
2022-11-26T19:43:58.309Z,12.45
2022-11-26T19:49:01.013Z,12.68
2022-11-26T19:54:03.628Z,12.82
2022-11-26T19:59:06.774Z,12.57
2022-11-26T20:04:12.070Z,12.57
2022-11-26T20:09:14.992Z,13.52
2022-11-26T20:14:17.917Z,13.60
2022-11-26T20:19:20.693Z,15.75
2022-11-26T20:24:24.053Z,16.08
2022-11-26T20:29:26.938Z,15.23
2022-11-26T20:34:31.133Z,14.13
2022-11-26T20:39:37.535Z,13.88
2022-11-26T20:44:40.481Z,12.82
2022-11-26T20:49:43.487Z,13.23
2022-11-26T20:54:49.516Z,13.68
2022-11-26T20:59:56.104Z,12.88
2022-11-26T21:05:00.633Z,13.30
2022-11-26T21:10:03.664Z,13.57
2022-11-26T21:15:06.602Z,15.38
2022-11-26T21:20:09.686Z,18.33
2022-11-26T21:25:12.343Z,14.80
2022-11-26T21:30:14.968Z,13.85
2022-11-26T21:35:17.838Z,14.98
2022-11-26T21:40:20.726Z,14.20
2022-11-26T21:45:23.439Z,16.20
2022-11-26T21:50:26.408Z,17.35
2022-11-26T21:55:29.233Z,15.75
2022-11-26T22:00:31.879Z,14.63
2022-11-26T22:05:34.484Z,14.10
2022-11-26T22:10:37.438Z,15.43
2022-11-26T22:15:41.462Z,16.10
2022-11-26T22:20:51.392Z,14.02
2022-11-26T22:25:53.981Z,12.88
2022-11-26T22:30:57.038Z,13.23
2022-11-26T22:36:01.297Z,12.50
2022-11-26T22:41:05.081Z,13.18
2022-11-26T22:46:09.613Z,14.27
2022-11-26T22:51:12.542Z,15.20
2022-11-26T22:56:15.208Z,12.80
2022-11-26T23:01:22.239Z,13.80
2022-11-26T23:06:25.482Z,13.05
2022-11-26T23:11:36.170Z,15.02
2022-11-26T23:16:40.125Z,13.57
2022-11-26T23:21:44.948Z,13.75
2022-11-26T23:26:47.853Z,13.35
2022-11-26T23:31:50.843Z,13.85
2022-11-26T23:36:53.418Z,13.93
2022-11-26T23:41:55.950Z,14.27
2022-11-26T23:46:58.563Z,13.95
2022-11-26T23:52:01.076Z,13.15
2022-11-26T23:57:03.910Z,13.98
